Flight Track Log - Related Links

Times and Time Zones

All times are in EST time to prevent confusion due to time zone crossing. See the SWA535 flight status page for this flight to view local times or setup timezone preferences in your user account.


Time Position Orientation Groundspeed Altitude Reporting Facility
EST Latitude Longitude Course Direction KTS MPH feet Rate Location/Type
Mon 06:32:07 PM 27.9333 -82.6500 327° Northwest 273 314 6,100  Level Tampa TRACON
Mon 06:33:57 PM 28.0706 -82.6856 347° North 299 344 10,800 2,329 Climbing Jacksonville Center
Mon 06:34:57 PM 28.1644 -82.7136 345° North 316 364 12,700 2,050 Climbing Jacksonville Center
Mon 06:35:00 PM 28.1570 -83.1544 328° Northwest  Level Estimated
Mon 06:35:57 PM 28.2667 -82.7442 345° North 350 403 14,900  Level Jacksonville Center
Mon 06:36:00 PM 28.2544 -83.1557 359° North  Level FlightAware Approximate
Mon 06:36:57 PM 28.3731 -82.7747 346° North 379 436 17,200  Level Jacksonville Center
Mon 06:37:00 PM 28.2834 -83.2612 327° Northwest  Level Estimated
Mon 06:37:57 PM 28.4858 -82.7981 350° North 401 461 19,200  Level Jacksonville Center
Mon 06:38:57 PM 28.6089 -82.8358 345° North 414 476 20,900 1,950 Climbing Jacksonville Center
Mon 06:39:57 PM 28.6947 -82.8950 329° Northwest 403 464 23,100 1,850 Climbing Jacksonville Center
Mon 06:40:57 PM 28.7947 -82.9636 329° Northwest 403 464 24,600 1,950 Climbing Jacksonville Center
Mon 06:41:57 PM 28.8928 -83.0325 328° Northwest 409 471 27,000 1,800 Climbing Jacksonville Center
Mon 06:42:57 PM 28.9886 -83.0992 329° Northwest 409 471 28,200 1,100 Climbing Jacksonville Center
Mon 06:43:57 PM 29.0908 -83.1706 329° Northwest 409 471 29,200 1,300 Climbing Jacksonville Center
Mon 06:44:57 PM 29.1931 -83.2447 328° Northwest 420 483 30,800 1,400 Climbing Jacksonville Center
Mon 06:45:57 PM 29.2931 -83.3117 330° Northwest 420 483 32,000 600 Climbing Jacksonville Center
Mon 06:46:57 PM 29.3928 -83.3836 328° Northwest 420 483 32,000 500 Level Jacksonville Center
Mon 06:47:57 PM 29.4864 -83.4603 325° Northwest 425 489 33,000 1,000 Climbing Jacksonville Center
Mon 06:48:57 PM 29.5361 -83.5681 298° West 392 451 34,000 500 Climbing Jacksonville Center
Mon 06:49:57 PM 29.5833 -83.6831 295° West 384 442 34,000  Level Jacksonville Center
Mon 06:50:57 PM 29.6328 -83.7933 297° West 389 448 34,000  Level Jacksonville Center
Mon 06:51:57 PM 29.6800 -83.9036 296° West 389 448 34,000  Level Jacksonville Center
Mon 06:52:57 PM 29.7292 -84.0167 297° West 389 448 34,000  Level Jacksonville Center
Mon 06:53:57 PM 29.7783 -84.1344 296° West 394 453 34,000  Level Jacksonville Center
Mon 06:54:57 PM 29.8272 -84.2525 296° West 405 466 34,000  Level Jacksonville Center
Mon 06:55:57 PM 29.8758 -84.3706 295° West 405 466 34,000  Level Jacksonville Center
Mon 06:56:57 PM 29.9267 -84.4886 296° West 405 466 34,000 -50 Level Jacksonville Center
Mon 06:57:57 PM 29.9772 -84.6094 296° West 405 466 33,900  Descending Jacksonville Center
Mon 06:58:57 PM 30.0278 -84.7231 297° West 405 466 34,000 50 Climbing Jacksonville Center
Mon 06:59:57 PM 30.0742 -84.8392 295° West 405 466 34,000  Level Jacksonville Center
Mon 07:00:57 PM 30.1244 -84.9556 297° West 405 466 34,000  Level Jacksonville Center
Mon 07:01:57 PM 30.1706 -85.0717 295° West 400 460 34,000  Level Jacksonville Center
Mon 07:02:57 PM 30.2208 -85.1883 297° West 400 460 34,000  Level Jacksonville Center
Mon 07:03:57 PM 30.2689 -85.3000 297° West 400 460 34,000  Level Jacksonville Center
Mon 07:04:57 PM 30.3186 -85.4264 295° West 395 455 34,000  Level Jacksonville Center
Mon 07:05:57 PM 30.3642 -85.5408 295° West 390 449 34,000  Level Jacksonville Center
Mon 07:06:57 PM 30.4119 -85.6506 297° West 390 449 34,000  Level Jacksonville Center
Mon 07:07:57 PM 30.4367 -85.7667 284° West 385 443 34,000  Level Jacksonville Center
Mon 07:08:57 PM 30.4361 -85.8800 270° West 367 422 34,000  Level Jacksonville Center
Mon 07:09:57 PM 30.4353 -85.9981 270° West 362 417 34,000  Level Jacksonville Center
Mon 07:10:57 PM 30.4344 -86.1161 270° West 362 417 34,000  Level Jacksonville Center
Mon 07:11:57 PM 30.4358 -86.2317 271° West 367 422 34,000  Level Jacksonville Center
Mon 07:12:57 PM 30.4347 -86.3450 269° West 362 417 34,000  Level Jacksonville Center
Mon 07:13:57 PM 30.4358 -86.4631 271° West 362 417 34,000  Level Jacksonville Center
Mon 07:14:57 PM 30.4367 -86.5761 271° West 362 417 34,000  Level Jacksonville Center
Mon 07:15:57 PM 30.4375 -86.6942 270° West 362 417 34,000  Level Jacksonville Center
Mon 07:16:57 PM 30.4339 -86.8122 268° West 367 422 34,000  Level Jacksonville Center
Mon 07:17:57 PM 30.4342 -86.9375 270° West 367 422 34,000  Level Jacksonville Center
Mon 07:18:57 PM 30.4342 -87.0603 270° West 377 434 34,000  Level Jacksonville Center
Mon 07:19:57 PM 30.4319 -87.1903 269° West 388 447 34,000 -431 Level Jacksonville Center
Mon 07:21:30 PM 30.4319 -87.3858 270° West 396 456 32,900 -774 Descending Houston Center
Mon 07:22:32 PM 30.4308 -87.5131 269° West 395 455 32,000 -435 Descending Houston Center
Mon 07:23:34 PM 30.4297 -87.6392 269° West 394 453 32,000  Level Houston Center
Mon 07:24:35 PM 30.4283 -87.7708 269° West 403 464 32,000  Level Houston Center
Mon 07:25:37 PM 30.4264 -87.9003 269° West 403 464 32,000  Level Houston Center
Mon 07:26:39 PM 30.4261 -88.0286 270° West 400 460 32,000  Level Houston Center
Mon 07:27:40 PM 30.4233 -88.1542 269° West 392 451 32,000 -585 Level Houston Center
Mon 07:28:42 PM 30.4211 -88.2775 269° West 384 442 30,800 -1,500 Descending Houston Center
Mon 07:29:44 PM 30.4192 -88.4250 269° West 381 438 28,900 -1,610 Descending Houston Center
Mon 07:30:45 PM 30.4175 -88.5472 269° West 378 435 27,500 -1,415 Descending Houston Center
Mon 07:31:47 PM 30.4044 -88.6636 263° West 361 415 26,000 -1,561 Descending Houston Center
Mon 07:32:48 PM 30.3792 -88.7714 255° West 346 398 24,300 -1,610 Descending Houston Center
Mon 07:33:50 PM 30.3575 -88.8756 256° West 334 384 22,700 -1,500 Descending Houston Center
Mon 07:34:52 PM 30.3350 -88.9786 256° West 326 375 21,200 -1,463 Descending Houston Center
Mon 07:35:53 PM 30.3119 -89.0775 255° West 320 368 19,700 -1,514 Descending Houston Center
Mon 07:36:43 PM 30.2917 -89.1647 255° West 311 358 18,400 -1,452 Descending Houston Center
Mon 07:36:55 PM 30.2908 -89.1719 262° West 307 353 18,200 -1,600 Descending Houston Center
Mon 07:37:43 PM 30.2706 -89.2669 256° West 303 349 16,800 -1,452 Descending Houston Center
Mon 07:37:57 PM 30.2697 -89.2667 164° South 303 349 16,700 -1,475 Descending Houston Center
Mon 07:38:44 PM 30.2511 -89.3619 257° West 302 348 15,300 -1,672 Descending Houston Center
Mon 07:38:58 PM 30.2492 -89.3814 263° West 303 349 15,000 -1,400 Descending Houston Center
Mon 07:39:44 PM 30.2464 -89.4583 268° West 305 351 13,900 -1,452 Descending Houston Center
Mon 07:40:00 PM 30.2442 -89.4786 263° West 303 349 13,500 -1,475 Descending Houston Center
Mon 07:40:45 PM 30.2394 -89.5550 266° West 301 346 12,400 -1,475 Descending Houston Center
Mon 07:41:01 PM 30.2381 -89.5758 266° West 302 348 12,000 -1,180 Descending Houston Center
Mon 07:41:46 PM 30.2342 -89.6492 267° West 297 342 11,200 -1,065 Descending Houston Center
Mon 07:42:03 PM 30.2319 -89.6711 263° West 296 341 10,900 -1,200 Descending Houston Center
Mon 07:42:46 PM 30.2269 -89.7383 265° West 279 321 10,000 -1,161 Descending Houston Center
Mon 07:43:05 PM 30.2269 -89.7589 270° West 278 320 9,700 -1,279 Descending Houston Center
Mon 07:43:47 PM 30.2214 -89.8181 264° West 244 281 8,700 -1,574 Descending Houston Center
Mon 07:44:06 PM 30.2203 -89.8383 266° West 250 288 8,100 -1,672 Descending Houston Center
Mon 07:44:48 PM 30.2158 -89.9025 265° West 244 281 7,000 -1,452 Descending Houston Center
Mon 07:45:08 PM 30.2158 -89.9181 270° West 246 283 6,600 -1,800 Descending Houston Center
Mon 07:45:48 PM 30.2100 -89.9797 264° West 245 282 5,200 -1,645 Descending Houston Center
Mon 07:46:10 PM 30.2103 -89.9969 271° West 245 282 4,900 -1,377 Descending Houston Center
Mon 07:46:49 PM 30.2061 -90.0594 266° West 248 285 3,800 -1,475 Descending Houston Center
Mon 07:47:11 PM 30.2053 -90.0764 267° West 247 284 3,400 -1,377 Descending Houston Center
Mon 07:47:50 PM 30.2003 -90.1367 265° West 242 278 2,400 -1,161 Descending Houston Center
Mon 07:48:13 PM 30.1969 -90.1525 256° West 240 276 2,200 -400 Descending Houston Center
Mon 07:48:50 PM 30.1558 -90.1867 216° Southwest 230 265 2,000 -194 Descending Houston Center
Mon 07:49:15 PM 30.1358 -90.2022 214° Southwest 225 259 2,000  Level Houston Center
Mon 07:49:51 PM 30.1086 -90.2125 198° South 176 203 2,000 -197 Level Houston Center
Mon 07:50:16 PM 30.0906 -90.2175 193° South 189 217 1,800 -800 Descending Houston Center
Mon 07:50:51 PM 30.0650 -90.2264 197° South 145 167 1,200 -968 Descending Houston Center
Mon 07:51:18 PM 30.0486 -90.2311 194° South 168 193 800 -689 Descending Houston Center
Mon 07:51:52 PM 30.0236 -90.2400 197° South 138 159 500 -194 Descending Houston Center
Mon 07:52:20 PM 30.0125 -90.2425 191° South 161 185 600 214 Climbing Houston Center

Login

Don't have an account? Register now (free) for customized features, flight alerts, and more!